Time;durP1;ratioP1;P1;durP2;ratioP2;P2;SDS_P1;SDS_P2;PMS_P1;PMS_P2;Temp;Humidity;BMP_temperature;BMP_pressure;BME280_temperature;BME280_humidity;BME280_pressure;Samples;Min_cycle;Max_cycle;Signal;HPM_P1;HPM_P2
2021/01/07 00:00:24;;;;;;;22.42;12.77;;;;;;;0.04;77.15;95283.53;4732972;30;20087;-44
2021/01/07 00:02:50;;;;;;;24.65;13.55;;;;;;;0.09;77.39;95285.34;4732791;30;20150;-47
2021/01/07 00:05:17;;;;;;;24.02;13.48;;;;;;;-0.02;77.43;95282.00;4732506;30;20060;-45
2021/01/07 00:07:43;;;;;;;23.02;12.73;;;;;;;-0.03;77.77;95297.16;4732422;30;20139;-44
2021/01/07 00:10:11;;;;;;;21.35;12.90;;;;;;;0.18;77.08;95295.09;4732688;30;20223;-45
2021/01/07 00:12:37;;;;;;;23.42;13.25;;;;;;;0.27;76.67;95292.59;4749535;30;20056;-48
2021/01/07 00:15:05;;;;;;;21.00;12.68;;;;;;;0.42;76.10;95294.31;4757277;30;20121;-46
2021/01/07 00:17:31;;;;;;;23.88;12.95;;;;;;;0.40;76.27;95309.78;4766068;30;20483;-47
2021/01/07 00:19:58;;;;;;;24.77;13.38;;;;;;;0.29;76.22;95292.31;4732959;30;20088;-44
2021/01/07 00:22:24;;;;;;;22.60;12.50;;;;;;;0.49;76.37;95316.06;4732689;30;20543;-44
2021/01/07 00:24:51;;;;;;;21.30;12.73;;;;;;;0.54;75.72;95312.53;4732652;30;20092;-45
2021/01/07 00:27:17;;;;;;;23.98;12.90;;;;;;;0.63;75.83;95314.28;4730972;30;20140;-47
2021/01/07 00:29:44;;;;;;;23.95;12.98;;;;;;;0.44;76.35;95310.78;4731915;30;20538;-45
2021/01/07 00:32:10;;;;;;;22.13;13.13;;;;;;;0.56;76.48;95313.84;4735200;30;20139;-44
2021/01/07 00:34:37;;;;;;;23.00;13.73;;;;;;;0.48;76.53;95309.13;4735810;30;20060;-44
2021/01/07 00:37:03;;;;;;;24.17;13.13;;;;;;;0.42;76.96;95312.94;4735166;30;20052;-45
2021/01/07 00:39:30;;;;;;;25.77;13.63;;;;;;;0.39;76.67;95302.84;4735248;30;20140;-45
2021/01/07 00:41:57;;;;;;;23.60;13.38;;;;;;;0.20;77.68;95306.25;4735796;30;20064;-48
2021/01/07 00:44:25;;;;;;;26.65;15.05;;;;;;;0.51;76.66;95308.56;4735583;30;20531;-45
2021/01/07 00:46:52;;;;;;;22.95;13.57;;;;;;;0.56;76.38;95310.41;4735338;30;20062;-45
2021/01/07 00:49:19;;;;;;;27.23;14.43;;;;;;;0.38;77.10;95303.94;4734841;30;20140;-45
2021/01/07 00:51:45;;;;;;;22.42;12.65;;;;;;;0.15;77.65;95316.94;4734441;30;20139;-46
2021/01/07 00:54:13;;;;;;;23.65;13.25;;;;;;;0.01;78.48;95308.03;4734113;30;20404;-47
2021/01/07 00:56:40;;;;;;;25.05;14.23;;;;;;;0.41;77.48;95311.34;4734214;30;20061;-44
2021/01/07 00:59:12;;;;;;;23.40;13.15;;;;;;;0.24;78.10;95311.78;4734402;30;20494;-46
2021/01/07 01:01:49;;;;;;;25.05;13.65;;;;;;;0.40;77.19;95315.09;4735581;30;20503;-44
2021/01/07 01:04:16;;;;;;;23.88;14.38;;;;;;;0.56;76.40;95318.38;4735291;30;20126;-47
2021/01/07 01:06:44;;;;;;;24.30;13.98;;;;;;;0.41;77.12;95322.00;4736659;30;20486;-44
2021/01/07 01:09:12;;;;;;;26.25;13.98;;;;;;;0.28;77.71;95328.00;4751979;30;20064;-45
2021/01/07 01:11:47;;;;;;;25.33;13.45;;;;;;;0.37;77.37;95323.63;4752773;30;20147;-45
2021/01/07 01:14:16;;;;;;;23.17;13.40;;;;;;;0.51;76.72;95324.53;4756695;30;20069;-45
2021/01/07 01:16:46;;;;;;;23.73;13.23;;;;;;;0.30;77.43;95331.16;4752024;30;20110;-44
2021/01/07 01:19:15;;;;;;;25.27;13.48;;;;;;;0.33;77.43;95327.94;4739271;30;20057;-48
2021/01/07 01:21:42;;;;;;;25.27;13.75;;;;;;;0.16;78.11;95323.03;4734968;30;20064;-49
2021/01/07 01:24:10;;;;;;;23.83;13.98;;;;;;;0.35;77.57;95323.13;4733731;30;20056;-46
2021/01/07 01:26:37;;;;;;;23.42;13.13;;;;;;;0.13;78.01;95329.72;4734509;30;20056;-45
2021/01/07 01:29:03;;;;;;;22.95;13.35;;;;;;;0.17;78.19;95327.31;4751895;30;20084;-45
2021/01/07 01:31:30;;;;;;;24.85;13.77;;;;;;;0.21;78.10;95331.78;4752458;30;20533;-47
2021/01/07 01:33:56;;;;;;;25.33;13.82;;;;;;;0.12;78.68;95333.44;4752374;30;20056;-44
2021/01/07 01:36:26;;;;;;;26.70;13.98;;;;;;;0.25;78.24;95329.34;4742225;30;20067;-48
2021/01/07 01:38:53;;;;;;;26.50;15.05;;;;;;;0.22;78.23;95328.03;4734051;30;20061;-46
2021/01/07 01:41:20;;;;;;;26.45;14.68;;;;;;;0.18;78.51;95340.31;4734578;30;20069;-48
2021/01/07 01:43:47;;;;;;;24.48;13.45;;;;;;;0.26;78.04;95338.09;4734189;30;20425;-47
2021/01/07 01:46:13;;;;;;;25.00;13.82;;;;;;;0.34;77.71;95343.63;4749866;30;20460;-47
2021/01/07 01:48:41;;;;;;;24.60;13.65;;;;;;;0.38;77.84;95349.16;4742648;30;20056;-45
2021/01/07 01:51:08;;;;;;;25.05;13.32;;;;;;;0.41;77.38;95344.06;4734430;30;20087;-46
2021/01/07 01:53:36;;;;;;;25.42;14.18;;;;;;;0.34;78.06;95340.97;4734246;30;20147;-45
2021/01/07 01:56:04;;;;;;;25.67;14.35;;;;;;;0.12;78.75;95338.75;4734333;30;20053;-44
2021/01/07 01:58:34;;;;;;;25.05;13.88;;;;;;;0.13;78.80;95337.72;4749684;30;20148;-45
2021/01/07 02:01:01;;;;;;;27.95;14.90;;;;;;;0.20;78.24;95335.50;4751812;30;20072;-47
2021/01/07 02:03:27;;;;;;;26.00;14.05;;;;;;;0.35;77.87;95339.09;4751898;30;20168;-45
2021/01/07 02:05:56;;;;;;;26.52;14.55;;;;;;;-0.04;79.83;95326.69;4735873;30;20132;-45
2021/01/07 02:08:24;;;;;;;25.33;13.35;;;;;;;0.18;78.71;95337.66;4733303;30;20144;-44
2021/01/07 02:10:51;;;;;;;26.88;14.38;;;;;;;0.35;78.52;95339.88;4734223;30;20131;-45
2021/01/07 02:13:17;;;;;;;26.52;13.93;;;;;;;0.59;77.57;95331.91;4733749;30;20549;-44
2021/01/07 02:15:44;;;;;;;23.58;13.35;;;;;;;0.42;77.46;95321.72;4763065;30;20143;-45
2021/01/07 02:18:10;;;;;;;26.00;14.52;;;;;;;0.30;78.79;95325.84;4757458;30;20048;-45
2021/01/07 02:20:38;;;;;;;25.15;13.38;;;;;;;0.45;78.10;95331.00;4733626;30;20400;-44
2021/01/07 02:23:05;;;;;;;24.83;14.15;;;;;;;0.55;77.47;95330.88;4733971;30;20057;-44
2021/01/07 02:25:32;;;;;;;26.02;14.13;;;;;;;0.52;77.33;95331.47;4733789;30;20053;-48
2021/01/07 02:27:58;;;;;;;25.23;14.15;;;;;;;0.41;78.17;95337.97;4732806;30;20562;-48
2021/01/07 02:30:25;;;;;;;28.20;14.20;;;;;;;0.51;77.88;95332.53;4733739;30;20056;-47
2021/01/07 02:32:51;;;;;;;25.65;15.35;;;;;;;0.45;77.71;95333.66;4732761;30;20053;-45
2021/01/07 02:35:17;;;;;;;26.85;14.60;;;;;;;0.30;78.44;95342.59;4733631;30;20084;-46
2021/01/07 02:37:46;;;;;;;26.10;14.20;;;;;;;0.62;77.59;95323.38;4733008;30;20057;-46
2021/01/07 02:40:14;;;;;;;24.05;13.50;;;;;;;0.38;77.64;95326.00;4733894;30;20064;-47
2021/01/07 02:42:40;;;;;;;25.92;14.27;;;;;;;0.47;78.22;95334.19;4733583;30;20674;-45
2021/01/07 02:45:08;;;;;;;26.02;14.60;;;;;;;0.44;78.24;95335.53;4747827;30;20121;-44
2021/01/07 02:47:36;;;;;;;24.55;13.55;;;;;;;0.49;77.83;95332.03;4749402;30;20083;-47
2021/01/07 02:50:05;;;;;;;23.33;13.07;;;;;;;0.39;77.81;95334.78;4733547;30;20079;-47
2021/01/07 02:52:32;;;;;;;26.20;13.25;;;;;;;0.32;78.20;95323.69;4733394;30;20090;-46
2021/01/07 02:54:58;;;;;;;26.35;14.73;;;;;;;0.58;77.15;95325.00;4732697;30;20071;-45
2021/01/07 02:57:25;;;;;;;25.35;13.15;;;;;;;0.58;76.75;95327.66;4732303;30;20361;-48
2021/01/07 02:59:51;;;;;;;24.08;12.93;;;;;;;0.45;77.45;95331.00;4733446;30;20060;-45
2021/01/07 03:02:17;;;;;;;24.02;13.00;;;;;;;0.33;77.96;95317.31;4733222;30;20052;-44
2021/01/07 03:04:44;;;;;;;21.52;12.82;;;;;;;0.39;78.11;95324.13;4733552;30;20063;-46
2021/01/07 03:07:10;;;;;;;22.17;12.45;;;;;;;0.60;76.85;95320.19;4732848;30;20504;-46
2021/01/07 03:09:37;;;;;;;21.92;12.35;;;;;;;0.61;76.84;95321.75;4732479;30;20475;-48
2021/01/07 03:12:16;;;;;;;22.85;12.45;;;;;;;0.53;76.83;95316.28;4733088;30;20129;-45
2021/01/07 03:14:44;;;;;;;24.23;13.23;;;;;;;0.53;77.15;95324.28;4751464;30;20211;-44
2021/01/07 03:17:11;;;;;;;25.52;13.13;;;;;;;0.68;76.48;95327.56;4768753;30;20071;-44
2021/01/07 03:19:38;;;;;;;24.02;12.88;;;;;;;0.75;75.71;95326.41;4736186;30;20427;-45
2021/01/07 03:22:04;;;;;;;21.20;11.90;;;;;;;0.79;75.57;95327.44;4733069;30;20135;-44
2021/01/07 03:24:36;;;;;;;23.90;11.77;;;;;;;0.88;75.04;95326.53;4733334;30;20427;-46
2021/01/07 03:27:02;;;;;;;22.20;12.45;;;;;;;0.98;74.95;95325.59;4732610;30;20052;-44
2021/01/07 03:29:29;;;;;;;22.40;11.65;;;;;;;0.98;74.41;95325.59;4740769;30;20055;-44
2021/01/07 03:31:55;;;;;;;21.00;12.23;;;;;;;0.89;74.47;95316.66;4750573;30;20067;-43
2021/01/07 03:34:23;;;;;;;22.50;12.25;;;;;;;0.52;75.93;95323.50;4750110;30;20086;-45
2021/01/07 03:36:49;;;;;;;20.45;11.68;;;;;;;0.60;75.71;95325.50;4737619;30;20144;-44
2021/01/07 03:39:17;;;;;;;22.17;12.95;;;;;;;0.85;74.95;95342.28;4732135;30;20504;-45
2021/01/07 03:41:44;;;;;;;21.05;11.38;;;;;;;0.76;75.18;95330.66;4732834;30;20147;-44
2021/01/07 03:44:11;;;;;;;22.45;12.25;;;;;;;0.67;74.94;95307.31;4745622;30;20068;-44
2021/01/07 03:46:39;;;;;;;19.55;10.90;;;;;;;0.65;75.23;95322.81;4732762;30;20057;-45
2021/01/07 03:49:05;;;;;;;19.42;11.25;;;;;;;0.77;75.16;95334.91;4731963;30;20088;-43
2021/01/07 03:51:32;;;;;;;20.23;10.80;;;;;;;0.79;74.70;95332.75;4732988;30;20141;-43
2021/01/07 03:53:59;;;;;;;17.77;10.63;;;;;;;0.80;74.84;95345.00;4732713;30;20111;-44
2021/01/07 03:56:25;;;;;;;20.83;11.63;;;;;;;0.77;74.57;95334.91;4732535;30;20063;-43
2021/01/07 03:58:51;;;;;;;19.27;10.88;;;;;;;0.61;75.08;95334.28;4731882;30;20080;-43
2021/01/07 04:01:18;;;;;;;19.90;12.02;;;;;;;0.62;75.25;95330.56;4732702;30;20593;-44
2021/01/07 04:03:44;;;;;;;18.33;11.75;;;;;;;0.54;75.25;95326.63;4732861;30;20060;-45
2021/01/07 04:06:11;;;;;;;17.23;10.57;;;;;;;0.74;75.30;95330.94;4733976;30;20508;-44
2021/01/07 04:08:37;;;;;;;19.90;11.00;;;;;;;0.54;75.83;95329.31;4734253;30;20144;-45
2021/01/07 04:11:04;;;;;;;19.30;11.13;;;;;;;0.76;74.84;95338.66;4735884;30;20131;-44
2021/01/07 04:13:31;;;;;;;19.20;11.05;;;;;;;0.72;74.76;95327.00;4736169;30;20061;-43
2021/01/07 04:15:57;;;;;;;21.95;10.07;;;;;;;0.43;76.25;95330.50;4738749;30;20056;-43
2021/01/07 04:18:24;;;;;;;20.00;10.50;;;;;;;0.32;76.78;95337.00;4740698;30;20052;-46
2021/01/07 04:20:50;;;;;;;18.80;10.55;;;;;;;0.41;76.23;95332.63;4753551;30;20503;-44
2021/01/07 04:23:17;;;;;;;16.40;10.75;;;;;;;0.50;76.09;95333.63;4753319;30;20507;-44
2021/01/07 04:25:43;;;;;;;18.45;10.75;;;;;;;0.69;75.02;95337.13;4753590;30;20143;-44
2021/01/07 04:28:09;;;;;;;19.30;11.07;;;;;;;0.45;76.12;95337.09;4742278;30;20137;-44
2021/01/07 04:30:36;;;;;;;18.38;11.15;;;;;;;0.51;75.61;95339.72;4735621;30;20131;-44
2021/01/07 04:33:02;;;;;;;18.17;11.07;;;;;;;0.69;75.06;95337.13;4735729;30;20053;-46
2021/01/07 04:35:29;;;;;;;20.38;11.48;;;;;;;0.45;75.88;95338.97;4735731;30;20060;-44
2021/01/07 04:37:56;;;;;;;20.63;12.18;;;;;;;0.61;75.37;95343.06;4734639;30;20060;-43
2021/01/07 04:40:22;;;;;;;19.58;11.70;;;;;;;0.55;75.84;95348.72;4735681;30;20132;-46
2021/01/07 04:42:49;;;;;;;21.00;11.50;;;;;;;0.49;76.06;95340.03;4735562;30;20056;-45
2021/01/07 04:45:16;;;;;;;20.70;11.02;;;;;;;0.57;75.57;95336.72;4735429;30;20451;-45
2021/01/07 04:47:49;;;;;;;21.42;11.68;;;;;;;0.69;75.01;95342.44;4735510;30;20202;-43
2021/01/07 04:50:17;;;;;;;21.45;11.65;;;;;;;0.64;75.27;95337.16;4753045;30;20056;-45
2021/01/07 04:52:43;;;;;;;21.13;12.13;;;;;;;0.74;74.73;95336.25;4753144;30;20068;-45
2021/01/07 04:55:11;;;;;;;21.85;11.45;;;;;;;0.56;75.66;95339.69;4753043;30;20180;-44
2021/01/07 04:57:39;;;;;;;19.80;11.80;;;;;;;0.43;76.11;95344.59;4750548;30;20052;-43
2021/01/07 05:00:08;;;;;;;23.10;12.77;;;;;;;0.45;76.70;95342.44;4735167;30;20503;-44
2021/01/07 05:02:35;;;;;;;21.10;11.95;;;;;;;0.65;75.46;95341.44;4734104;30;20165;-43
2021/01/07 05:05:04;;;;;;;21.63;12.98;;;;;;;0.70;75.44;95346.69;4735254;30;20064;-46
2021/01/07 05:07:36;;;;;;;23.98;13.00;;;;;;;0.54;75.67;95352.47;4734163;30;20524;-44
2021/01/07 05:10:10;;;;;;;25.23;12.88;;;;;;;0.53;76.09;95346.34;4734984;30;20102;-44
2021/01/07 05:12:38;;;;;;;21.80;11.77;;;;;;;0.44;76.48;95338.19;4735012;30;20064;-45
2021/01/07 05:15:08;;;;;;;23.92;13.25;;;;;;;0.64;75.53;95355.81;4753823;30;20097;-43
2021/01/07 05:17:37;;;;;;;24.52;13.63;;;;;;;0.66;75.46;95351.00;4733388;30;20078;-47
2021/01/07 05:20:13;;;;;;;22.83;13.30;;;;;;;0.83;74.75;95363.06;4735044;30;20056;-44
2021/01/07 05:22:41;;;;;;;22.60;12.43;;;;;;;0.81;75.07;95358.00;4734724;30;20484;-46
2021/01/07 05:25:15;;;;;;;22.40;12.68;;;;;;;0.86;74.54;95354.50;4734932;30;20135;-46
2021/01/07 05:27:42;;;;;;;22.38;12.45;;;;;;;0.85;74.74;95356.38;4733682;30;20064;-45
2021/01/07 05:30:11;;;;;;;24.38;13.40;;;;;;;0.85;74.68;95353.72;4734753;30;20056;-45
2021/01/07 05:32:40;;;;;;;26.15;12.98;;;;;;;0.88;74.50;95344.38;4734591;30;20053;-44
2021/01/07 05:35:18;;;;;;;23.98;12.48;;;;;;;0.85;74.56;95343.06;4734653;30;20111;-44
2021/01/07 05:37:44;;;;;;;22.83;12.90;;;;;;;0.93;73.81;95344.31;4734310;30;20064;-45
2021/01/07 05:40:11;;;;;;;23.92;12.73;;;;;;;0.93;73.87;95352.28;4734500;30;20200;-47
2021/01/07 05:42:39;;;;;;;26.92;13.25;;;;;;;0.72;74.58;95356.28;4734584;30;20083;-46
2021/01/07 05:45:08;;;;;;;23.40;12.60;;;;;;;0.68;75.09;95353.38;4734679;30;20060;-45
2021/01/07 05:47:43;;;;;;;24.10;12.93;;;;;;;0.79;74.73;95354.84;4733623;30;20095;-45
2021/01/07 05:50:11;;;;;;;22.85;12.00;;;;;;;0.81;74.61;95352.69;4734545;30;20053;-47
2021/01/07 05:52:46;;;;;;;22.52;12.98;;;;;;;0.90;73.94;95350.19;4734531;30;20122;-45
2021/01/07 05:55:15;;;;;;;21.65;12.27;;;;;;;1.02;73.45;95347.13;4734594;30;20076;-48
2021/01/07 05:57:43;;;;;;;26.23;13.48;;;;;;;1.01;73.37;95334.88;4748733;30;20492;-47
2021/01/07 06:00:13;;;;;;;20.38;11.98;;;;;;;0.79;74.21;95354.84;4751995;30;20070;-45
2021/01/07 06:02:41;;;;;;;23.30;13.85;;;;;;;0.70;74.11;95353.88;4750648;30;20535;-44
2021/01/07 06:05:10;;;;;;;22.10;12.52;;;;;;;0.86;73.96;95365.94;4742999;30;20088;-44
2021/01/07 06:07:38;;;;;;;23.40;12.82;;;;;;;0.89;73.42;95359.28;4733360;30;20111;-46
2021/01/07 06:10:06;;;;;;;23.85;12.88;;;;;;;0.65;73.78;95346.75;4733880;30;20140;-47
2021/01/07 06:12:33;;;;;;;24.63;13.23;;;;;;;0.73;73.84;95358.66;4734158;30;20056;-45
2021/01/07 06:15:10;;;;;;;22.38;12.38;;;;;;;0.72;73.94;95359.75;4760956;30;20117;-44
2021/01/07 06:17:38;;;;;;;22.75;12.68;;;;;;;0.90;73.36;95360.84;4765608;30;20124;-46
2021/01/07 06:20:16;;;;;;;26.20;12.95;;;;;;;0.78;73.25;95371.09;4750665;30;20086;-46
2021/01/07 06:22:50;;;;;;;23.73;12.98;;;;;;;0.56;74.45;95367.09;4750631;30;20539;-48
2021/01/07 06:25:20;;;;;;;22.80;12.57;;;;;;;0.86;73.98;95365.16;4748941;30;20135;-46
2021/01/07 06:27:48;;;;;;;22.63;13.18;;;;;;;0.83;73.44;95368.41;4732391;30;20496;-45
2021/01/07 06:30:15;;;;;;;25.08;13.25;;;;;;;0.77;73.69;95359.66;4732652;30;20057;-44
2021/01/07 06:32:42;;;;;;;21.17;12.38;;;;;;;0.53;74.03;95359.66;4732945;30;20488;-44
2021/01/07 06:35:19;;;;;;;26.73;14.13;;;;;;;0.56;74.42;95360.97;4732748;30;20083;-47
2021/01/07 06:37:51;;;;;;;25.98;13.98;;;;;;;0.85;73.87;95359.06;4732456;30;20060;-45
2021/01/07 06:40:22;;;;;;;25.27;13.18;;;;;;;0.67;73.97;95360.56;4733004;30;20061;-44
2021/01/07 06:42:53;;;;;;;25.80;13.88;;;;;;;0.88;73.03;95366.47;4733046;30;20064;-47
2021/01/07 06:45:22;;;;;;;25.13;13.93;;;;;;;0.74;73.29;95362.88;4743348;30;20087;-47
2021/01/07 06:47:51;;;;;;;25.02;13.43;;;;;;;0.91;73.28;95360.59;4747119;30;20060;-44
2021/01/07 06:50:18;;;;;;;25.83;12.98;;;;;;;0.85;73.19;95369.69;4747557;30;20100;-47
2021/01/07 06:52:46;;;;;;;23.40;13.23;;;;;;;0.73;73.74;95371.19;4750457;30;20486;-44
2021/01/07 06:55:17;;;;;;;27.85;14.07;;;;;;;0.69;73.91;95361.09;4750639;30;20052;-44
2021/01/07 06:57:46;;;;;;;29.10;14.32;;;;;;;0.52;74.02;95359.94;4745212;30;20071;-43
2021/01/07 07:00:17;;;;;;;26.27;13.90;;;;;;;0.63;73.88;95353.44;4733334;30;20060;-44
2021/01/07 07:03:04;;;;;;;24.25;13.32;;;;;;;0.49;74.54;95361.31;4732194;30;20067;-44
2021/01/07 07:05:33;;;;;;;26.63;14.20;;;;;;;0.62;74.02;95360.63;4738693;30;20461;-48
2021/01/07 07:08:35;;;;;;;27.35;14.15;;;;;;;0.73;73.38;95360.53;4732199;30;20528;-45
2021/01/07 07:11:08;;;;;;;25.92;13.10;;;;;;;0.70;73.71;95361.88;4767124;30;20427;-48
2021/01/07 07:13:44;;;;;;;24.95;13.45;;;;;;;0.87;73.11;95367.53;4744767;30;20062;-45
2021/01/07 07:16:15;;;;;;;25.70;13.55;;;;;;;0.95;72.62;95376.78;4728594;30;630693;-45
2021/01/07 07:18:41;;;;;;;25.67;14.93;;;;;;;1.09;71.47;95377.66;4742906;30;20414;-49
2021/01/07 07:21:16;;;;;;;26.48;14.20;;;;;;;0.97;72.09;95377.28;4742283;30;20056;-44
2021/01/07 07:23:46;;;;;;;25.35;14.18;;;;;;;0.84;72.62;95378.75;4749977;30;20060;-46
2021/01/07 07:26:30;;;;;;;28.75;14.52;;;;;;;0.90;72.39;95393.59;4735496;30;20060;-48
2021/01/07 07:28:57;;;;;;;29.17;14.65;;;;;;;0.85;72.38;95398.22;4749380;30;20056;-47
2021/01/07 07:31:45;;;;;;;30.40;14.52;;;;;;;0.63;73.26;95398.69;4749058;30;20467;-44
2021/01/07 07:34:13;;;;;;;27.75;13.80;;;;;;;0.82;72.88;95402.22;4735796;30;20057;-46
2021/01/07 07:36:41;;;;;;;27.23;13.65;;;;;;;0.88;72.55;95398.44;4735599;30;20128;-48
2021/01/07 07:39:08;;;;;;;27.20;13.60;;;;;;;0.78;72.66;95397.72;4732818;30;20061;-48
2021/01/07 07:41:45;;;;;;;27.05;13.38;;;;;;;0.83;72.88;95393.16;4751824;30;20125;-47
2021/01/07 07:44:14;;;;;;;27.20;13.52;;;;;;;0.88;72.28;95397.66;4746485;30;20135;-48
2021/01/07 07:46:41;;;;;;;25.52;13.95;;;;;;;0.68;73.13;95399.44;4739232;30;20665;-48
2021/01/07 07:49:10;;;;;;;24.75;13.57;;;;;;;0.60;73.39;95394.72;4738556;30;20064;-48
2021/01/07 07:51:38;;;;;;;27.92;13.52;;;;;;;0.61;73.24;95406.94;4749998;30;20568;-45
2021/01/07 07:54:06;;;;;;;26.60;14.90;;;;;;;0.77;72.54;95406.81;4743365;30;20141;-50
2021/01/07 07:56:33;;;;;;;24.60;13.65;;;;;;;0.86;72.49;95399.78;4744706;30;20094;-47
2021/01/07 07:59:04;;;;;;;25.98;13.82;;;;;;;0.88;72.85;95409.09;4745233;30;20057;-48
2021/01/07 08:01:47;;;;;;;25.75;13.48;;;;;;;1.05;72.02;95395.31;4744001;30;20512;-47
2021/01/07 08:04:24;;;;;;;25.40;13.13;;;;;;;1.16;72.08;95412.75;4743274;30;20056;-46
2021/01/07 08:06:51;;;;;;;25.55;14.05;;;;;;;1.17;71.76;95409.03;4736517;30;20516;-46
2021/01/07 08:09:19;;;;;;;29.98;16.25;;;;;;;1.23;71.73;95411.59;4743386;30;20052;-50
2021/01/07 08:11:48;;;;;;;28.02;15.68;;;;;;;1.11;71.80;95422.69;4754586;30;20151;-46
2021/01/07 08:14:20;;;;;;;29.58;16.27;;;;;;;0.96;72.05;95413.00;4739673;30;20420;-47
2021/01/07 08:16:47;;;;;;;27.58;16.70;;;;;;;0.93;72.97;95413.56;4753013;30;20144;-48
2021/01/07 08:19:19;;;;;;;27.73;15.38;;;;;;;0.93;72.64;95417.00;4748500;30;20059;-47
2021/01/07 08:21:51;;;;;;;27.70;15.45;;;;;;;0.86;72.75;95419.22;4743871;30;20060;-49
2021/01/07 08:24:21;;;;;;;22.70;13.27;;;;;;;0.83;72.63;95417.13;4737193;30;20052;-47
2021/01/07 08:27:19;;;;;;;24.73;14.65;;;;;;;1.04;72.30;95409.72;4744661;30;20056;-47
2021/01/07 08:29:49;;;;;;;25.02;13.73;;;;;;;1.02;72.16;95401.19;4749081;30;20404;-49
2021/01/07 08:32:19;;;;;;;30.35;16.13;;;;;;;1.32;72.98;95423.22;4743709;30;20064;-49
2021/01/07 08:34:46;;;;;;;26.95;16.17;;;;;;;1.29;71.54;95408.59;4741655;30;20060;-50
2021/01/07 08:37:21;;;;;;;24.92;13.20;;;;;;;1.22;71.85;95424.16;4744433;30;20055;-46
2021/01/07 08:39:48;;;;;;;25.95;13.52;;;;;;;1.41;71.08;95426.84;4742089;30;20054;-47
2021/01/07 08:42:15;;;;;;;25.35;15.00;;;;;;;1.41;71.63;95424.19;4742294;30;20135;-48
2021/01/07 08:44:42;;;;;;;24.90;13.15;;;;;;;1.36;70.84;95426.91;4746476;30;20056;-49
2021/01/07 08:47:23;;;;;;;30.40;16.00;;;;;;;1.34;70.49;95434.41;4742741;30;20072;-50
2021/01/07 08:50:10;;;;;;;25.30;13.52;;;;;;;1.24;71.10;95426.53;4745488;30;20091;-47
2021/01/07 08:52:52;;;;;;;27.05;14.82;;;;;;;1.32;71.42;95421.34;4736736;30;20065;-47
2021/01/07 08:55:20;;;;;;;25.38;14.07;;;;;;;1.31;71.58;95425.09;4738754;30;20052;-48
2021/01/07 08:57:46;;;;;;;22.88;13.20;;;;;;;1.43;71.15;95422.03;4736275;30;20135;-47
2021/01/07 09:00:22;;;;;;;24.30;14.50;;;;;;;1.60;70.40;95416.22;4735443;30;20499;-48
2021/01/07 09:03:00;;;;;;;24.42;13.43;;;;;;;1.57;70.43;95425.56;4735337;30;20057;-49
2021/01/07 09:05:28;;;;;;;24.25;13.48;;;;;;;1.59;70.44;95426.09;4734974;30;20060;-46
2021/01/07 09:08:05;;;;;;;24.85;13.15;;;;;;;1.52;70.17;95416.84;4739937;30;20125;-49
2021/01/07 09:10:33;;;;;;;24.02;13.20;;;;;;;1.53;69.88;95416.56;4747473;30;20112;-45
2021/01/07 09:12:59;;;;;;;25.65;14.07;;;;;;;1.43;70.26;95419.38;4738033;30;20196;-48
2021/01/07 09:15:26;;;;;;;24.90;13.10;;;;;;;1.52;70.28;95414.16;4738033;30;20138;-49
2021/01/07 09:17:55;;;;;;;23.40;13.63;;;;;;;1.74;69.73;95416.28;4745297;30;20135;-49
2021/01/07 09:20:29;;;;;;;23.15;13.05;;;;;;;1.96;68.86;95407.69;4743470;30;20060;-47
2021/01/07 09:23:09;;;;;;;23.45;12.63;;;;;;;1.89;68.70;95412.63;4741003;30;20081;-48
2021/01/07 09:25:37;;;;;;;23.65;13.43;;;;;;;1.93;68.51;95408.28;4749394;30;20135;-47
2021/01/07 09:28:04;;;;;;;24.92;14.00;;;;;;;1.82;69.01;95408.44;4747189;30;20064;-47
2021/01/07 09:30:31;;;;;;;24.50;12.88;;;;;;;1.27;70.64;95412.63;4755982;30;20057;-47
2021/01/07 09:32:58;;;;;;;25.25;13.90;;;;;;;1.80;68.91;95393.78;4753272;30;20151;-50
2021/01/07 09:35:26;;;;;;;23.30;13.02;;;;;;;1.86;68.58;95409.44;4750670;30;20086;-47
2021/01/07 09:37:59;;;;;;;23.45;13.90;;;;;;;1.84;69.14;95398.25;4763187;30;20060;-48
2021/01/07 09:40:26;;;;;;;24.00;13.13;;;;;;;1.99;68.70;95412.47;4757752;30;20083;-50
2021/01/07 09:42:53;;;;;;;23.48;13.10;;;;;;;2.20;68.50;95408.38;4738024;30;20165;-47
2021/01/07 09:45:19;;;;;;;23.13;13.43;;;;;;;1.88;69.02;95406.47;4740361;30;20507;-49
2021/01/07 09:47:46;;;;;;;22.92;13.80;;;;;;;1.96;68.43;95408.50;4755344;30;20071;-46
2021/01/07 09:50:13;;;;;;;24.27;14.25;;;;;;;1.77;68.47;95403.16;4746852;30;20056;-48
2021/01/07 09:52:40;;;;;;;24.80;13.98;;;;;;;1.72;69.22;95403.22;4742301;30;20114;-47
2021/01/07 09:55:08;;;;;;;23.85;14.07;;;;;;;1.95;68.48;95406.09;4738704;30;20057;-50
2021/01/07 09:57:36;;;;;;;22.88;13.27;;;;;;;1.97;68.74;95394.06;4749362;30;20070;-50
2021/01/07 10:00:05;;;;;;;22.08;14.07;;;;;;;2.18;67.88;95401.72;4744863;30;20076;-46
2021/01/07 10:02:33;;;;;;;24.85;14.85;;;;;;;2.34;67.34;95397.75;4756121;30;20083;-45
2021/01/07 10:04:59;;;;;;;25.80;14.25;;;;;;;2.28;67.58;95402.38;4746150;30;20084;-46
2021/01/07 10:07:25;;;;;;;24.88;15.00;;;;;;;2.39;67.59;95400.31;4750778;30;20114;-49
2021/01/07 10:09:52;;;;;;;24.55;14.02;;;;;;;2.38;67.05;95392.63;4739915;30;20057;-46
2021/01/07 10:12:22;;;;;;;26.23;14.48;;;;;;;2.24;68.16;95397.91;4754552;29;20417;-57
2021/01/07 10:14:49;;;;;;;25.27;15.15;;;;;;;2.03;68.42;95390.22;4753113;30;20067;-51
2021/01/07 10:17:15;;;;;;;26.25;16.45;;;;;;;2.32;68.61;95386.56;4750918;30;20060;-49
2021/01/07 10:19:42;;;;;;;25.45;14.15;;;;;;;2.54;67.43;95392.06;4746708;30;20056;-52
2021/01/07 10:22:13;;;;;;;25.23;14.88;;;;;;;2.21;67.52;95350.44;4735929;30;20116;-52
2021/01/07 10:24:42;;;;;;;24.10;13.90;;;;;;;2.64;66.54;95377.72;4721093;30;20135;-48
2021/01/07 10:27:10;;;;;;;26.10;15.38;;;;;;;2.83;66.36;95387.53;4725592;30;20055;-57
2021/01/07 10:29:38;;;;;;;25.80;14.05;;;;;;;2.65;66.71;95381.97;4718519;30;20163;-48
2021/01/07 10:32:07;;;;;;;22.17;13.48;;;;;;;2.25;68.03;95384.28;4734247;30;20155;-55
2021/01/07 10:34:35;;;;;;;23.35;12.80;;;;;;;2.32;67.02;95378.56;4733496;30;20064;-57
2021/01/07 10:37:04;;;;;;;24.90;13.43;;;;;;;2.33;67.66;95380.94;4731409;30;20084;-54
2021/01/07 10:39:32;;;;;;;22.58;12.57;;;;;;;2.26;67.86;95374.38;4732735;30;20062;-56
2021/01/07 10:42:00;;;;;;;24.70;13.35;;;;;;;2.32;67.45;95358.00;4719073;30;20143;-58
2021/01/07 10:44:28;;;;;;;23.65;13.82;;;;;;;2.31;67.68;95372.44;4729208;30;20131;-51
2021/01/07 10:46:59;;;;;;;25.15;14.32;;;;;;;2.68;66.96;95383.28;4733324;30;20064;-48
2021/01/07 10:49:28;;;;;;;25.73;14.10;;;;;;;2.66;66.37;95370.19;4733001;30;20206;-51
2021/01/07 10:52:18;;;;;;;23.38;13.13;;;;;;;2.58;65.76;95363.69;4734238;30;20533;-50
2021/01/07 10:55:03;;;;;;;24.95;13.93;;;;;;;2.49;66.53;95368.09;4724122;30;20060;-49
2021/01/07 10:57:51;;;;;;;28.08;15.65;;;;;;;2.53;66.49;95363.75;4725758;30;20071;-56
2021/01/07 11:00:36;;;;;;;22.23;13.38;;;;;;;2.30;66.48;95351.34;4732358;30;20076;-52
2021/01/07 11:03:43;;;;;;;22.35;12.85;;;;;;;2.41;67.23;95360.78;4733379;30;20045;-49
2021/01/07 11:06:12;;;;;;;20.10;11.60;;;;;;;1.97;67.59;95374.59;4734113;30;20064;-52
2021/01/07 11:08:47;;;;;;;21.65;12.80;;;;;;;1.99;67.73;95370.56;4736732;30;20060;-56
2021/01/07 11:11:22;;;;;;;22.42;12.65;;;;;;;1.88;68.77;95355.78;4733604;30;20139;-56
2021/01/07 11:14:02;;;;;;;20.08;11.18;;;;;;;1.88;67.90;95358.44;4734024;30;20066;-58
2021/01/07 11:16:46;;;;;;;19.15;11.10;;;;;;;1.87;68.13;95327.53;4724346;30;20060;-50
2021/01/07 11:19:22;;;;;;;21.65;11.90;;;;;;;1.94;67.96;95341.28;4728228;30;20154;-50
2021/01/07 11:22:01;;;;;;;20.50;11.77;;;;;;;1.83;68.78;95342.53;4732518;30;20118;-57
2021/01/07 11:24:28;;;;;;;19.33;11.15;;;;;;;1.67;68.60;95357.19;4733858;30;20048;-57
2021/01/07 11:26:55;;;;;;;21.60;12.38;;;;;;;1.54;68.76;95282.16;4729306;30;20139;-53
2021/01/07 11:29:22;;;;;;;20.88;11.63;;;;;;;2.04;67.52;95341.09;4732167;30;20126;-48
2021/01/07 11:31:58;;;;;;;18.88;10.70;;;;;;;2.19;66.96;95344.63;4733172;30;20512;-50
2021/01/07 11:34:25;;;;;;;19.67;11.65;;;;;;;2.56;65.62;95339.13;4733841;30;20064;-54